createdAt,value
2023-03-06T00:01:30.283Z,11.30
2023-03-06T00:04:19.226Z,11.00
2023-03-06T00:07:07.703Z,11.00
2023-03-06T00:09:56.144Z,10.90
2023-03-06T00:12:44.638Z,10.90
2023-03-06T00:15:33.488Z,10.60
2023-03-06T00:18:23.381Z,10.70
2023-03-06T00:21:12.095Z,10.90
2023-03-06T00:24:00.567Z,11.10
2023-03-06T00:26:49.088Z,11.20
2023-03-06T00:29:37.934Z,11.20
2023-03-06T00:32:27.600Z,11.30
2023-03-06T00:35:18.009Z,11.40
2023-03-06T00:38:06.467Z,11.70
2023-03-06T00:43:43.679Z,12.20
2023-03-06T00:46:32.168Z,12.10
2023-03-06T00:49:20.703Z,12.10
2023-03-06T00:52:10.700Z,12.10
2023-03-06T00:54:59.098Z,12.10
2023-03-06T00:57:47.572Z,12.10
2023-03-06T01:00:36.091Z,12.10
2023-03-06T01:03:24.568Z,12.00
2023-03-06T01:06:13.038Z,12.00
2023-03-06T01:09:02.910Z,11.90
2023-03-06T01:11:51.480Z,11.90
2023-03-06T01:14:39.894Z,11.80
2023-03-06T01:17:28.417Z,11.90
2023-03-06T01:20:18.444Z,11.70
2023-03-06T01:23:06.920Z,11.50
2023-03-06T01:25:56.801Z,11.50
2023-03-06T01:28:45.585Z,11.50
2023-03-06T01:31:34.271Z,11.60
2023-03-06T01:34:22.774Z,11.60
2023-03-06T01:37:11.284Z,11.70
2023-03-06T01:39:59.772Z,11.80
2023-03-06T01:42:51.693Z,11.90
2023-03-06T01:46:18.550Z,11.90
2023-03-06T01:49:12.210Z,12.00
2023-03-06T01:52:04.928Z,11.90
2023-03-06T01:54:58.247Z,11.60
2023-03-06T01:57:50.069Z,11.50
2023-03-06T02:00:40.018Z,11.50
2023-03-06T02:03:29.906Z,11.30
2023-03-06T02:06:21.753Z,11.30
2023-03-06T02:09:11.036Z,11.40
2023-03-06T02:11:59.606Z,11.50
2023-03-06T02:14:48.770Z,11.50
2023-03-06T02:17:38.897Z,11.50
2023-03-06T02:20:33.300Z,11.60
2023-03-06T02:23:31.224Z,11.50
2023-03-06T02:26:21.709Z,11.80
2023-03-06T02:29:10.874Z,11.90
2023-03-06T02:31:59.414Z,11.90
2023-03-06T02:34:55.114Z,11.90
2023-03-06T02:37:43.615Z,12.00
2023-03-06T02:40:32.367Z,11.80
2023-03-06T02:43:26.681Z,12.00
2023-03-06T02:46:15.284Z,12.00
2023-03-06T02:49:03.808Z,11.20
2023-03-06T02:51:52.339Z,10.50
2023-03-06T02:54:40.928Z,10.50
2023-03-06T02:57:29.362Z,10.60
2023-03-06T03:00:20.780Z,10.40
2023-03-06T03:03:09.616Z,10.40
2023-03-06T03:05:58.121Z,10.10
2023-03-06T03:08:46.685Z,10.20
2023-03-06T03:11:35.245Z,10.10
2023-03-06T03:14:25.657Z,10.30
2023-03-06T03:17:15.778Z,10.30
2023-03-06T03:20:05.346Z,10.50
2023-03-06T03:22:55.964Z,10.50
2023-03-06T03:25:44.412Z,10.60
2023-03-06T03:28:32.884Z,10.80
2023-03-06T03:31:21.438Z,10.70
2023-03-06T03:34:11.404Z,10.70
2023-03-06T03:36:59.960Z,10.50
2023-03-06T03:39:48.432Z,10.30
2023-03-06T03:42:36.902Z,10.30
2023-03-06T03:45:25.689Z,10.30
2023-03-06T04:05:15.711Z,9.70
2023-03-06T04:10:55.219Z,9.70
2023-03-06T04:13:43.796Z,9.60
2023-03-06T04:16:32.342Z,9.70
2023-03-06T04:19:20.946Z,10.00
2023-03-06T04:22:09.435Z,10.40
2023-03-06T04:24:59.274Z,10.50
2023-03-06T04:27:47.811Z,10.70
2023-03-06T04:30:36.557Z,10.70
2023-03-06T04:33:25.284Z,10.50
2023-03-06T04:36:25.341Z,10.20
2023-03-06T04:39:14.064Z,10.10
2023-03-06T04:42:03.915Z,10.00
2023-03-06T04:44:52.373Z,10.00
2023-03-06T04:47:40.904Z,10.20
2023-03-06T04:50:32.422Z,10.00
2023-03-06T04:53:24.670Z,9.80
2023-03-06T04:59:03.991Z,9.60
2023-03-06T05:01:52.584Z,9.40
2023-03-06T05:04:41.172Z,9.10
2023-03-06T05:07:29.823Z,9.20
2023-03-06T05:10:19.354Z,9.30
2023-03-06T05:13:07.954Z,9.60
2023-03-06T05:16:03.452Z,9.70
2023-03-06T05:18:52.024Z,9.70
2023-03-06T05:21:40.497Z,9.90
2023-03-06T05:24:29.055Z,9.90
2023-03-06T05:27:17.483Z,10.00
2023-03-06T05:30:07.171Z,9.90
2023-03-06T05:32:57.006Z,9.80
2023-03-06T05:35:47.719Z,9.70
2023-03-06T05:38:36.288Z,9.10
2023-03-06T05:41:24.757Z,9.90
2023-03-06T05:44:13.269Z,10.20
2023-03-06T05:47:01.967Z,10.60
2023-03-06T05:49:51.931Z,10.80
2023-03-06T05:52:40.845Z,10.50
2023-03-06T05:55:29.373Z,10.50
2023-03-06T05:58:17.880Z,10.10
2023-03-06T06:01:11.313Z,10.10
2023-03-06T06:03:59.815Z,10.10
2023-03-06T06:06:53.087Z,10.30
2023-03-06T06:09:41.832Z,10.50
2023-03-06T06:12:30.624Z,10.70
2023-03-06T06:15:19.239Z,10.80
2023-03-06T06:18:07.721Z,10.40
2023-03-06T06:20:56.263Z,10.30
2023-03-06T06:23:46.299Z,10.50
2023-03-06T06:26:34.794Z,10.60
2023-03-06T06:29:24.645Z,10.60
2023-03-06T06:32:13.242Z,10.50
2023-03-06T06:35:01.912Z,10.10
2023-03-06T06:37:50.378Z,10.20
2023-03-06T06:40:40.354Z,10.20
2023-03-06T06:43:29.776Z,10.00
2023-03-06T06:46:56.230Z,10.30
2023-03-06T06:49:26.966Z,10.30
2023-03-06T06:52:16.220Z,10.40
2023-03-06T06:55:04.915Z,10.60
2023-03-06T06:57:54.934Z,10.50
2023-03-06T07:00:43.372Z,10.60
2023-03-06T07:03:31.937Z,10.60
2023-03-06T07:06:20.440Z,10.40
2023-03-06T07:09:08.924Z,10.40
2023-03-06T07:11:57.454Z,10.30
2023-03-06T07:14:48.382Z,10.60
2023-03-06T07:17:36.904Z,10.60
2023-03-06T07:20:25.413Z,10.60
2023-03-06T07:26:03.285Z,11.30
2023-03-06T07:28:53.829Z,11.70
2023-03-06T07:31:44.173Z,11.90
2023-03-06T07:34:32.971Z,12.00
2023-03-06T07:37:22.260Z,11.90
2023-03-06T07:40:12.847Z,12.20
2023-03-06T07:43:16.764Z,12.40
2023-03-06T07:46:07.061Z,12.70
2023-03-06T07:48:58.255Z,12.90
2023-03-06T07:51:46.728Z,12.80
2023-03-06T07:54:35.282Z,12.90
2023-03-06T07:57:23.765Z,13.00
2023-03-06T08:00:14.939Z,13.10
2023-03-06T08:03:03.767Z,13.00
2023-03-06T08:05:53.676Z,13.00
2023-03-06T08:08:44.447Z,13.20
2023-03-06T08:11:33.307Z,13.40
2023-03-06T08:14:22.412Z,13.40
2023-03-06T08:17:10.880Z,13.30
2023-03-06T08:19:59.547Z,13.10
2023-03-06T08:22:49.965Z,13.20
2023-03-06T08:25:38.485Z,13.40
2023-03-06T08:28:27.257Z,13.60
2023-03-06T08:31:24.028Z,13.50
2023-03-06T08:34:18.590Z,13.50
2023-03-06T08:37:07.238Z,13.50
2023-03-06T08:42:45.829Z,13.90
2023-03-06T12:35:03.119Z,17.50
2023-03-06T12:44:20.874Z,16.60
2023-03-06T12:47:11.601Z,16.90
2023-03-06T12:50:03.871Z,17.50
2023-03-06T12:52:54.434Z,17.50
2023-03-06T12:55:46.047Z,17.60
2023-03-06T12:58:53.564Z,17.60
2023-03-06T13:02:05.353Z,17.60
2023-03-06T13:05:13.467Z,17.50
2023-03-06T14:29:46.618Z,17.80
2023-03-06T14:32:35.209Z,17.70
2023-03-06T14:38:16.292Z,17.50
2023-03-06T14:41:06.644Z,17.50
2023-03-06T14:47:12.537Z,17.00
2023-03-06T14:50:21.752Z,17.20
2023-03-06T14:53:17.504Z,17.10
2023-03-06T15:54:33.756Z,16.30
2023-03-06T15:57:25.338Z,16.30
2023-03-06T16:00:27.644Z,16.30
2023-03-06T16:03:16.788Z,16.20
2023-03-06T16:06:05.446Z,16.00
2023-03-06T16:08:54.839Z,15.90
2023-03-06T16:11:46.715Z,16.10
2023-03-06T16:14:35.307Z,16.00
2023-03-06T16:17:23.803Z,15.90
2023-03-06T16:20:15.536Z,16.00
2023-03-06T16:23:10.306Z,15.80
2023-03-06T16:25:58.905Z,15.80
2023-03-06T16:28:48.761Z,15.80
2023-03-06T16:31:37.180Z,15.80
2023-03-06T16:34:25.931Z,15.70
2023-03-06T16:40:06.889Z,15.20
2023-03-06T16:42:55.386Z,15.20
2023-03-06T16:45:45.511Z,15.20
2023-03-06T16:48:34.459Z,15.30
2023-03-06T16:51:24.161Z,15.20
2023-03-06T16:54:12.951Z,15.00
2023-03-06T16:57:01.517Z,14.80
2023-03-06T16:59:50.023Z,14.70
2023-03-06T17:02:40.082Z,14.60
2023-03-06T17:05:28.702Z,14.60
2023-03-06T17:08:17.131Z,14.50
2023-03-06T17:11:07.021Z,14.30
2023-03-06T17:13:55.837Z,14.30
2023-03-06T17:16:45.667Z,14.10
2023-03-06T17:19:35.544Z,14.00
2023-03-06T17:22:24.240Z,14.00
2023-03-06T17:25:13.173Z,13.80
2023-03-06T17:28:01.924Z,13.90
2023-03-06T17:30:50.540Z,13.80
2023-03-06T17:33:39.026Z,13.80
2023-03-06T17:36:30.604Z,13.80
2023-03-06T17:39:19.782Z,13.80
2023-03-06T17:42:08.841Z,13.70
2023-03-06T17:44:57.435Z,13.80
2023-03-06T17:47:48.021Z,13.80
2023-03-06T17:50:37.490Z,13.70
2023-03-06T17:53:28.047Z,13.60
2023-03-06T17:56:16.959Z,13.60
2023-03-06T17:59:05.452Z,13.70
2023-03-06T18:01:53.969Z,13.80
2023-03-06T18:04:42.558Z,13.90
2023-03-06T18:07:31.035Z,13.70
2023-03-06T18:10:21.210Z,13.60
2023-03-06T18:13:10.331Z,13.30
2023-03-06T18:15:58.946Z,13.30
2023-03-06T18:18:47.571Z,13.30
2023-03-06T18:21:36.035Z,13.40
2023-03-06T18:24:24.506Z,13.50
2023-03-06T18:27:14.362Z,13.50
2023-03-06T18:30:03.331Z,13.70
2023-03-06T18:32:51.774Z,13.60
2023-03-06T18:35:40.740Z,13.50
2023-03-06T18:38:29.184Z,13.40
2023-03-06T18:41:18.459Z,13.30
2023-03-06T18:44:08.659Z,13.40
2023-03-06T18:46:57.102Z,13.20
2023-03-06T18:49:46.341Z,13.40
2023-03-06T18:52:35.591Z,13.50
2023-03-06T18:55:24.066Z,13.30
2023-03-06T18:58:12.513Z,13.40
2023-03-06T19:01:07.178Z,13.40
2023-03-06T19:03:55.688Z,13.50
2023-03-06T19:06:44.245Z,13.30
2023-03-06T19:09:32.710Z,12.80
2023-03-06T19:15:35.508Z,13.20
2023-03-06T19:18:26.905Z,12.80
2023-03-06T19:21:16.987Z,12.70
2023-03-06T19:24:06.799Z,12.70
2023-03-06T19:26:55.215Z,12.80
2023-03-06T19:29:43.630Z,13.10
2023-03-06T19:32:32.189Z,13.30
2023-03-06T19:35:22.188Z,13.20
2023-03-06T19:38:11.064Z,13.10
2023-03-06T19:41:00.507Z,13.30
2023-03-06T19:43:52.280Z,13.50
2023-03-06T19:46:40.810Z,13.60
2023-03-06T19:49:29.299Z,13.50
2023-03-06T19:52:19.275Z,13.30
2023-03-06T19:55:09.639Z,13.40
2023-03-06T19:57:58.390Z,13.50
2023-03-06T20:00:46.865Z,13.60
2023-03-06T20:03:35.355Z,13.80
2023-03-06T20:06:23.901Z,13.80
2023-03-06T20:09:13.824Z,13.80
2023-03-06T20:12:03.013Z,13.90
2023-03-06T20:14:51.739Z,13.90
2023-03-06T20:17:41.156Z,13.80
2023-03-06T20:20:29.954Z,13.80
2023-03-06T20:23:18.374Z,13.90
2023-03-06T20:26:11.905Z,14.10
2023-03-06T20:29:00.355Z,14.20
2023-03-06T20:31:48.937Z,14.60
2023-03-06T20:34:38.987Z,13.70
2023-03-06T20:37:27.450Z,13.50
2023-03-06T20:40:16.265Z,13.30
2023-03-06T20:43:06.358Z,13.20
2023-03-06T20:45:59.322Z,13.10
2023-03-06T20:48:50.146Z,13.10
2023-03-06T20:51:40.138Z,13.00
2023-03-06T20:54:28.648Z,13.00
2023-03-06T20:57:17.128Z,13.00
2023-03-06T21:00:08.781Z,12.90
2023-03-06T21:02:57.238Z,12.90
2023-03-06T21:05:47.501Z,12.90
2023-03-06T21:08:35.955Z,13.00
2023-03-06T21:11:24.423Z,13.00
2023-03-06T21:14:14.434Z,13.00
2023-03-06T21:17:04.300Z,13.00
2023-03-06T21:19:52.822Z,12.70
2023-03-06T21:22:41.280Z,12.50
2023-03-06T21:25:29.872Z,12.40
2023-03-06T21:28:19.576Z,12.50
2023-03-06T21:31:09.265Z,12.50
2023-03-06T21:33:59.773Z,12.50
2023-03-06T21:36:48.227Z,12.50
2023-03-06T21:39:36.742Z,12.40
2023-03-06T21:42:25.257Z,11.80
2023-03-06T21:45:13.685Z,11.60
2023-03-06T21:48:02.249Z,11.70
2023-03-06T21:50:52.086Z,12.00
2023-03-06T21:53:42.992Z,12.10
2023-03-06T21:56:33.275Z,12.10
2023-03-06T21:59:22.174Z,12.10
2023-03-06T22:02:11.675Z,12.30
2023-03-06T22:05:00.110Z,12.40
2023-03-06T22:07:49.954Z,12.50
2023-03-06T22:10:39.876Z,12.40
2023-03-06T22:13:28.331Z,12.40
2023-03-06T22:16:17.387Z,12.30
2023-03-06T22:19:06.001Z,12.10
2023-03-06T22:21:54.371Z,12.20
2023-03-06T22:24:44.157Z,11.90
2023-03-06T22:27:32.837Z,11.50
2023-03-06T22:30:21.534Z,11.70
2023-03-06T22:33:10.014Z,11.80
2023-03-06T22:36:05.304Z,11.50
2023-03-06T22:38:55.861Z,11.40
2023-03-06T22:41:45.785Z,11.40
2023-03-06T22:44:34.230Z,11.50
2023-03-06T22:47:22.683Z,11.30
2023-03-06T22:50:12.507Z,11.00
2023-03-06T22:53:01.245Z,10.90
2023-03-06T22:55:49.699Z,11.20
2023-03-06T22:58:40.252Z,11.40
2023-03-06T23:01:30.307Z,11.20
2023-03-06T23:04:18.801Z,10.90
2023-03-06T23:07:07.269Z,10.70
2023-03-06T23:09:55.954Z,10.60
2023-03-06T23:12:44.375Z,10.40
2023-03-06T23:15:36.523Z,10.20
2023-03-06T23:18:25.039Z,10.10
2023-03-06T23:21:15.253Z,10.30
2023-03-06T23:24:04.340Z,10.50
2023-03-06T23:26:52.739Z,10.70
2023-03-06T23:29:41.139Z,10.80
2023-03-06T23:32:32.608Z,10.60
2023-03-06T23:35:21.195Z,10.80
2023-03-06T23:38:09.643Z,10.80
2023-03-06T23:41:02.270Z,10.20
2023-03-06T23:43:54.040Z,10.30
2023-03-06T23:46:43.641Z,9.80
2023-03-06T23:49:33.504Z,10.10
2023-03-06T23:52:21.961Z,10.40
2023-03-06T23:55:10.944Z,10.30
2023-03-06T23:57:59.404Z,10.20
